Time;durP1;ratioP1;P1;durP2;ratioP2;P2;SDS_P1;SDS_P2;PMS_P1;PMS_P2;Temp;Humidity;BMP_temperature;BMP_pressure;BME280_temperature;BME280_humidity;BME280_pressure;Samples;Min_cycle;Max_cycle;Signal;HPM_P1;HPM_P2
2023/09/10 00:04:26;;;;;;;32.70;23.00;;;;;;;14.57;100.00;99439.60;273455;1278;22662;-89
2023/09/10 00:10:28;;;;;;;32.90;24.10;;;;;;;14.50;100.00;99437.06;273028;1272;22940;-88
2023/09/10 00:16:30;;;;;;;32.90;24.30;;;;;;;14.46;100.00;99433.04;273033;1271;22287;-88
2023/09/10 00:22:44;;;;;;;34.90;25.80;;;;;;;14.48;100.00;99435.64;272990;1274;22322;-88
2023/09/10 00:29:08;;;;;;;33.00;23.80;;;;;;;14.49;100.00;99430.67;272971;1272;22312;-88
2023/09/10 00:35:10;;;;;;;26.90;19.20;;;;;;;14.50;100.00;99425.80;273025;1263;22203;-88
2023/09/10 00:41:27;;;;;;;29.30;22.30;;;;;;;14.49;100.00;99432.11;272896;1272;22203;-87
2023/09/10 00:47:29;;;;;;;28.40;21.20;;;;;;;14.46;100.00;99432.73;273032;1271;22423;-87
2023/09/10 00:53:31;;;;;;;30.00;20.70;;;;;;;14.52;100.00;99430.05;273054;1273;22366;-87
2023/09/10 00:59:33;;;;;;;25.20;19.40;;;;;;;14.49;100.00;99424.55;272828;1272;22420;-87
2023/09/10 01:05:39;;;;;;;28.00;22.00;;;;;;;14.34;100.00;99424.66;272103;1273;23157;-88
2023/09/10 01:11:54;;;;;;;31.70;23.60;;;;;;;14.22;100.00;99421.93;271096;1272;22527;-87
2023/09/10 01:18:30;;;;;;;29.40;22.30;;;;;;;14.11;100.00;99418.73;269725;1272;22576;-86
2023/09/10 01:24:48;;;;;;;24.60;19.10;;;;;;;14.10;100.00;99410.86;270083;1272;22550;-87
2023/09/10 01:30:50;;;;;;;28.80;20.90;;;;;;;14.04;100.00;99408.65;269371;1270;23418;-87
2023/09/10 01:37:14;;;;;;;29.50;21.50;;;;;;;13.94;100.00;99406.63;268892;1263;23198;-87
2023/09/10 01:43:16;;;;;;;25.90;20.60;;;;;;;13.85;100.00;99404.09;272546;1273;22190;-87
2023/09/10 01:49:18;;;;;;;27.50;19.70;;;;;;;13.78;100.00;99408.53;272897;1273;22403;-87
2023/09/10 01:55:20;;;;;;;26.60;19.90;;;;;;;13.74;100.00;99410.23;272916;1270;22367;-87
2023/09/10 02:01:22;;;;;;;25.80;21.50;;;;;;;13.70;100.00;99408.73;273297;1270;22440;-87
2023/09/10 02:07:24;;;;;;;27.90;22.20;;;;;;;13.69;100.00;99417.60;273290;1270;22227;-87
2023/09/10 02:13:26;;;;;;;27.30;21.70;;;;;;;13.64;100.00;99422.68;271309;1270;24285;-87
2023/09/10 02:19:28;;;;;;;27.00;20.70;;;;;;;13.55;100.00;99421.61;271738;1271;22329;-87
2023/09/10 02:25:30;;;;;;;28.50;21.70;;;;;;;13.52;100.00;99417.34;272127;1270;22341;-87
2023/09/10 02:31:31;;;;;;;27.20;20.70;;;;;;;13.49;100.00;99409.56;273019;1270;22326;-87
2023/09/10 02:37:33;;;;;;;22.30;17.90;;;;;;;13.46;100.00;99411.27;273154;1270;23123;-87
2023/09/10 02:43:35;;;;;;;24.10;18.00;;;;;;;13.42;100.00;99410.44;273134;1270;22289;-87
2023/09/10 02:49:49;;;;;;;23.10;17.90;;;;;;;13.40;100.00;99409.96;272991;1270;22319;-87
2023/09/10 02:55:59;;;;;;;22.00;18.00;;;;;;;13.36;100.00;99410.41;273422;1270;22408;-88
2023/09/10 03:02:22;;;;;;;22.00;16.20;;;;;;;13.30;100.00;99408.80;273284;1270;23090;-86
2023/09/10 03:08:24;;;;;;;24.70;17.30;;;;;;;13.23;100.00;99411.73;273128;1270;24324;-87
2023/09/10 03:14:28;;;;;;;21.00;17.20;;;;;;;13.21;100.00;99413.54;271395;1270;22176;-87
2023/09/10 03:20:31;;;;;;;21.60;16.20;;;;;;;13.21;100.00;99414.23;273342;1275;22988;-88
2023/09/10 03:26:33;;;;;;;22.60;18.20;;;;;;;13.21;100.00;99415.49;273311;1278;22182;-87
2023/09/10 03:32:35;;;;;;;26.10;19.70;;;;;;;13.20;100.00;99412.18;270892;1270;23508;-87
2023/09/10 03:38:54;;;;;;;22.90;18.30;;;;;;;13.21;100.00;99411.24;271653;1270;22591;-87
2023/09/10 03:44:56;;;;;;;22.50;17.50;;;;;;;13.17;100.00;99409.17;270977;1270;24255;-87
2023/09/10 03:50:59;;;;;;;20.20;16.10;;;;;;;13.12;100.00;99405.06;272047;1270;22315;-87
2023/09/10 03:57:03;;;;;;;19.60;15.70;;;;;;;13.08;100.00;99405.27;272994;1270;22225;-87
2023/09/10 04:03:05;;;;;;;22.10;15.70;;;;;;;13.06;100.00;99408.01;273085;1270;22928;-87
2023/09/10 04:09:08;;;;;;;19.70;16.00;;;;;;;13.10;100.00;99401.74;271781;1270;22595;-87
2023/09/10 04:15:28;;;;;;;21.80;18.60;;;;;;;13.10;100.00;99401.20;270890;1270;23460;-87
2023/09/10 04:21:30;;;;;;;21.60;17.50;;;;;;;13.06;100.00;99403.36;270758;1270;22230;-87
2023/09/10 04:27:46;;;;;;;21.10;16.20;;;;;;;13.00;100.00;99407.30;271507;1263;23395;-87
2023/09/10 04:33:48;;;;;;;24.00;17.50;;;;;;;12.94;100.00;99413.04;271564;1268;22549;-86
2023/09/10 04:39:51;;;;;;;21.30;16.80;;;;;;;12.93;100.00;99415.31;270745;1262;24248;-86
2023/09/10 04:46:33;;;;;;;22.20;17.30;;;;;;;12.93;100.00;99420.03;270771;1268;22719;-86
2023/09/10 04:52:35;;;;;;;25.30;18.10;;;;;;;12.91;100.00;99420.95;271122;1270;22358;-85
2023/09/10 04:58:38;;;;;;;19.30;15.60;;;;;;;12.99;100.00;99425.90;271876;1267;22380;-86
2023/09/10 05:04:40;;;;;;;21.90;17.00;;;;;;;13.16;100.00;99429.59;273004;1274;22666;-86
2023/09/10 05:11:02;;;;;;;22.00;16.50;;;;;;;13.27;100.00;99427.86;272981;1254;22360;-86
2023/09/10 05:17:04;;;;;;;21.20;17.90;;;;;;;13.42;100.00;99432.29;273385;1270;22348;-86
2023/09/10 05:23:06;;;;;;;23.30;19.30;;;;;;;13.54;100.00;99430.95;273112;1270;23035;-86
2023/09/10 05:29:48;;;;;;;23.30;17.90;;;;;;;13.71;100.00;99427.83;272963;1267;22213;-87
2023/09/10 05:35:55;;;;;;;27.10;20.10;;;;;;;13.97;100.00;99423.63;273044;1270;22336;-86
2023/09/10 05:41:57;;;;;;;27.50;19.90;;;;;;;14.32;100.00;99425.50;271430;1270;22562;-86
2023/09/10 05:48:00;;;;;;;27.70;18.50;;;;;;;14.71;100.00;99422.54;272477;1270;22719;-87
2023/09/10 05:54:02;;;;;;;30.90;20.20;;;;;;;15.08;100.00;99419.89;270716;1270;22524;-86
2023/09/10 06:00:04;;;;;;;26.40;20.80;;;;;;;15.36;100.00;99425.31;271681;1272;22363;-87
2023/09/10 06:06:19;;;;;;;31.50;22.60;;;;;;;15.66;100.00;99427.46;271158;1272;23713;-86
2023/09/10 06:12:21;;;;;;;34.50;24.20;;;;;;;15.93;100.00;99427.63;271035;1272;22786;-87
2023/09/10 06:18:23;;;;;;;34.70;24.00;;;;;;;16.25;100.00;99427.97;272781;1271;22270;-87
2023/09/10 06:24:25;;;;;;;24.60;21.00;;;;;;;16.53;100.00;99422.86;272923;1271;22339;-87
2023/09/10 06:30:48;;;;;;;27.60;19.60;;;;;;;16.73;100.00;99424.80;272881;1273;23006;-87
2023/09/10 06:36:50;;;;;;;25.30;20.70;;;;;;;16.96;100.00;99419.90;272853;1271;23370;-87
2023/09/10 06:42:52;;;;;;;29.70;21.30;;;;;;;17.13;100.00;99418.33;272860;1271;22335;-86
2023/09/10 06:49:06;;;;;;;28.40;20.90;;;;;;;17.29;100.00;99424.35;272843;1270;23442;-86
2023/09/10 06:55:08;;;;;;;24.30;19.30;;;;;;;17.44;100.00;99431.19;272972;1272;23031;-86
2023/09/10 07:01:09;;;;;;;24.30;18.50;;;;;;;17.60;100.00;99431.60;273204;1270;23519;-87
2023/09/10 07:07:11;;;;;;;25.60;18.70;;;;;;;17.75;100.00;99434.13;273143;1270;22360;-87
2023/09/10 07:13:13;;;;;;;25.80;16.60;;;;;;;17.97;100.00;99440.36;272982;1270;22311;-86
2023/09/10 07:19:15;;;;;;;20.30;16.50;;;;;;;18.25;100.00;99440.42;273166;1269;22324;-87
2023/09/10 07:25:17;;;;;;;21.70;16.60;;;;;;;18.50;100.00;99442.02;273417;1271;22200;-86
2023/09/10 07:31:18;;;;;;;22.10;15.70;;;;;;;18.73;100.00;99437.41;273174;1270;22276;-86
2023/09/10 07:37:22;;;;;;;16.50;13.50;;;;;;;18.97;100.00;99437.67;273235;1270;23414;-86
2023/09/10 07:43:26;;;;;;;19.90;14.20;;;;;;;19.26;100.00;99442.77;273075;1270;23117;-86
2023/09/10 07:49:28;;;;;;;16.20;13.70;;;;;;;19.65;100.00;99438.05;273021;1270;22347;-86
2023/09/10 07:55:30;;;;;;;16.20;12.50;;;;;;;20.07;100.00;99434.08;273160;1270;22214;-87
2023/09/10 08:01:34;;;;;;;16.20;12.20;;;;;;;20.52;100.00;99434.73;273355;1271;23447;-87
2023/09/10 08:07:36;;;;;;;16.50;12.50;;;;;;;20.97;100.00;99432.41;273097;1270;22238;-87
2023/09/10 08:13:38;;;;;;;17.30;11.60;;;;;;;21.34;100.00;99434.38;273188;1270;22317;-87
2023/09/10 08:19:40;;;;;;;14.20;11.00;;;;;;;21.66;100.00;99429.66;273133;1270;22300;-87
2023/09/10 08:25:41;;;;;;;16.20;11.40;;;;;;;21.91;100.00;99431.15;273151;1272;22801;-87
2023/09/10 08:31:43;;;;;;;13.30;11.50;;;;;;;22.16;100.00;99430.37;273140;1270;22352;-87
2023/09/10 08:37:45;;;;;;;13.50;10.90;;;;;;;22.47;100.00;99435.42;272963;1270;23125;-87
2023/09/10 08:43:57;;;;;;;14.10;10.70;;;;;;;22.67;100.00;99439.68;270369;1270;22550;-87
2023/09/10 08:50:10;;;;;;;11.60;10.30;;;;;;;23.00;100.00;99442.17;271249;1270;23975;-87
2023/09/10 08:56:12;;;;;;;17.80;10.20;;;;;;;23.30;100.00;99443.35;273005;1270;23175;-87
2023/09/10 09:02:14;;;;;;;11.40;9.60;;;;;;;23.64;100.00;99439.50;273104;1268;22347;-88
2023/09/10 09:08:36;;;;;;;11.60;8.60;;;;;;;24.17;100.00;99437.64;272985;1270;22244;-88
2023/09/10 09:14:42;;;;;;;12.70;8.90;;;;;;;25.11;100.00;99436.09;273111;1271;22224;-87
2023/09/10 09:20:46;;;;;;;10.60;9.10;;;;;;;25.96;98.95;99432.55;273027;1270;22251;-87
2023/09/10 09:26:50;;;;;;;14.50;9.20;;;;;;;26.86;97.68;99434.52;273169;1270;22373;-87
2023/09/10 09:32:52;;;;;;;10.80;8.80;;;;;;;27.62;93.76;99432.98;272999;1270;22403;-88
2023/09/10 09:38:56;;;;;;;9.70;8.70;;;;;;;28.06;90.65;99430.57;272618;1270;22414;-88
2023/09/10 09:44:58;;;;;;;10.80;9.50;;;;;;;28.58;88.63;99431.23;272897;1267;22251;-88
2023/09/10 09:51:02;;;;;;;14.10;8.80;;;;;;;29.05;87.18;99429.52;270903;1272;22580;-89
2023/09/10 09:57:05;;;;;;;8.80;7.90;;;;;;;29.71;83.20;99422.34;270233;1271;23703;-87
2023/09/10 10:03:07;;;;;;;10.90;8.40;;;;;;;30.13;80.76;99415.22;272174;1270;22560;-88
2023/09/10 10:09:09;;;;;;;9.10;7.50;;;;;;;30.55;78.03;99404.38;272902;1271;22137;-88
2023/09/10 10:15:12;;;;;;;10.50;7.90;;;;;;;31.09;75.36;99395.23;271832;1270;22575;-88
2023/09/10 10:21:14;;;;;;;8.10;6.90;;;;;;;31.41;72.07;99389.40;270055;1272;23960;-87
2023/09/10 10:27:16;;;;;;;8.80;7.20;;;;;;;31.77;68.59;99384.02;272281;1272;22333;-89
2023/09/10 10:33:21;;;;;;;9.00;7.10;;;;;;;32.07;66.20;99383.18;272638;1272;22232;-88
2023/09/10 10:39:35;;;;;;;9.00;6.50;;;;;;;32.20;64.11;99374.46;272894;1270;22333;-88
2023/09/10 10:45:38;;;;;;;7.10;5.70;;;;;;;32.34;62.65;99366.77;272820;1270;22536;-88
2023/09/10 10:51:46;;;;;;;6.50;5.00;;;;;;;32.37;61.14;99362.13;272576;1270;22326;-89
2023/09/10 10:57:48;;;;;;;5.60;5.10;;;;;;;32.41;59.39;99361.88;272812;1270;22255;-88
2023/09/10 11:03:50;;;;;;;5.30;4.80;;;;;;;32.23;58.45;99357.46;273075;1270;22306;-86
2023/09/10 11:09:52;;;;;;;6.90;4.70;;;;;;;32.07;57.19;99350.20;273080;1272;22327;-86
2023/09/10 11:16:03;;;;;;;5.70;5.10;;;;;;;31.83;55.18;99347.39;272912;1270;148726;-86
2023/09/10 11:22:05;;;;;;;6.80;5.00;;;;;;;31.59;54.92;99345.34;273105;1265;23480;-86
2023/09/10 11:28:46;;;;;;;6.40;4.80;;;;;;;31.02;53.86;99339.88;272878;1270;22328;-86
2023/09/10 11:34:48;;;;;;;7.80;4.70;;;;;;;30.52;53.78;99334.53;272963;1271;22220;-86
2023/09/10 11:40:49;;;;;;;5.70;5.00;;;;;;;30.02;53.99;99330.36;272871;1270;22578;-86
2023/09/10 11:46:52;;;;;;;5.80;5.20;;;;;;;29.82;54.90;99321.19;271640;1269;22217;-86
2023/09/10 11:52:54;;;;;;;6.80;5.40;;;;;;;29.77;54.55;99317.65;273044;1270;22319;-85
2023/09/10 11:58:56;;;;;;;6.20;5.30;;;;;;;29.50;54.86;99311.77;272850;1271;22304;-85
2023/09/10 12:05:02;;;;;;;7.40;5.60;;;;;;;29.19;55.21;99305.04;272896;1270;22199;-87
2023/09/10 12:11:06;;;;;;;5.70;5.20;;;;;;;28.93;55.42;99305.05;272909;1268;22143;-86
2023/09/10 12:17:09;;;;;;;7.70;5.40;;;;;;;28.66;55.84;99301.00;272822;1272;23163;-85
2023/09/10 12:23:11;;;;;;;6.90;5.00;;;;;;;28.53;56.38;99292.71;272950;1272;22437;-86
2023/09/10 12:29:13;;;;;;;7.80;5.20;;;;;;;28.33;55.47;99289.23;273012;1270;22301;-86
2023/09/10 12:35:15;;;;;;;7.30;4.90;;;;;;;28.17;55.11;99285.92;272899;1272;22396;-85
2023/09/10 12:41:17;;;;;;;5.80;4.50;;;;;;;28.10;53.76;99283.20;272939;1270;22238;-86
2023/09/10 12:47:19;;;;;;;6.20;5.00;;;;;;;27.99;53.44;99285.67;272865;1271;22334;-85
2023/09/10 12:53:20;;;;;;;6.20;4.60;;;;;;;27.82;53.52;99281.26;272731;1270;22381;-85
2023/09/10 12:59:22;;;;;;;5.20;4.20;;;;;;;27.82;52.82;99275.10;272723;1272;22217;-86
2023/09/10 13:05:24;;;;;;;6.40;5.00;;;;;;;27.78;52.57;99270.95;272712;1272;22194;-86
2023/09/10 13:11:26;;;;;;;7.90;5.30;;;;;;;27.71;52.90;99261.64;272731;1272;22404;-85
2023/09/10 13:17:27;;;;;;;5.50;4.80;;;;;;;27.58;54.25;99255.09;272783;1272;23559;-85
2023/09/10 13:23:31;;;;;;;5.70;5.10;;;;;;;27.53;54.71;99252.89;272820;1271;22358;-88
2023/09/10 13:29:33;;;;;;;5.00;4.50;;;;;;;27.44;54.74;99252.53;272623;1271;23561;-88
2023/09/10 13:35:40;;;;;;;6.10;5.20;;;;;;;27.45;53.62;99246.71;272823;1272;22331;-89
2023/09/10 13:41:42;;;;;;;8.20;4.80;;;;;;;27.42;53.19;99244.42;272652;1272;22320;-89
2023/09/10 13:47:44;;;;;;;5.30;4.60;;;;;;;27.36;53.24;99238.42;272762;1271;22208;-89
2023/09/10 13:53:45;;;;;;;6.60;5.00;;;;;;;27.36;53.36;99233.30;272744;1272;22331;-89
2023/09/10 13:59:47;;;;;;;8.80;5.40;;;;;;;27.37;53.31;99230.21;272763;1270;22258;-89
2023/09/10 14:05:49;;;;;;;8.00;5.10;;;;;;;27.29;53.75;99233.89;272706;1270;22314;-88
2023/09/10 14:11:50;;;;;;;6.20;5.50;;;;;;;27.19;54.41;99232.80;272792;1270;22459;-89
2023/09/10 14:17:52;;;;;;;6.50;5.40;;;;;;;27.05;55.07;99233.90;272352;1271;22558;-87
2023/09/10 14:23:54;;;;;;;6.20;5.10;;;;;;;27.01;55.17;99232.99;270451;1270;22311;-89
2023/09/10 14:29:56;;;;;;;7.80;5.20;;;;;;;26.92;55.65;99231.02;271283;1272;22576;-88
2023/09/10 14:35:59;;;;;;;5.70;4.90;;;;;;;26.91;55.87;99227.13;271408;1270;22192;-88
2023/09/10 14:42:01;;;;;;;5.90;5.20;;;;;;;26.78;57.01;99228.94;272834;1269;23191;-88
2023/09/10 14:48:06;;;;;;;5.60;5.10;;;;;;;26.66;58.16;99230.41;272500;1271;23012;-88
2023/09/10 14:54:08;;;;;;;5.60;4.90;;;;;;;26.56;58.64;99227.45;270742;1269;22182;-88
2023/09/10 15:00:10;;;;;;;5.30;4.80;;;;;;;26.44;58.83;99224.38;272959;1270;22416;-88
2023/09/10 15:06:12;;;;;;;7.20;4.90;;;;;;;26.36;58.93;99221.00;272759;1270;22355;-88
2023/09/10 15:12:14;;;;;;;6.80;5.40;;;;;;;26.30;59.43;99222.02;272533;1272;22329;-88
2023/09/10 15:18:21;;;;;;;5.90;4.80;;;;;;;26.19;60.17;99220.39;272829;1255;22480;-87
2023/09/10 15:24:22;;;;;;;6.80;5.60;;;;;;;26.09;60.46;99214.95;272828;1270;22186;-88
2023/09/10 15:30:24;;;;;;;7.20;5.40;;;;;;;25.99;61.17;99209.33;272758;1262;22272;-88
2023/09/10 15:36:28;;;;;;;5.40;4.90;;;;;;;25.86;61.87;99203.60;272790;1270;22218;-88
2023/09/10 15:42:29;;;;;;;8.30;5.80;;;;;;;25.75;62.50;99200.30;272742;1262;23075;-88
2023/09/10 15:48:33;;;;;;;6.50;5.40;;;;;;;25.64;63.02;99195.35;272591;1270;23221;-88
2023/09/10 15:54:35;;;;;;;9.10;5.90;;;;;;;25.53;63.65;99184.05;271925;1272;22189;-89
2023/09/10 16:00:38;;;;;;;9.40;6.40;;;;;;;25.39;64.17;99184.51;269891;1272;22595;-88
2023/09/10 16:06:40;;;;;;;8.40;6.50;;;;;;;25.27;65.14;99187.52;271984;1272;23371;-88
2023/09/10 16:12:42;;;;;;;7.70;6.30;;;;;;;25.15;66.03;99191.42;272885;1272;23402;-89
2023/09/10 16:18:43;;;;;;;8.10;6.50;;;;;;;25.05;66.90;99191.40;273071;1272;22312;-88
2023/09/10 16:24:45;;;;;;;9.90;6.40;;;;;;;24.94;67.89;99190.43;272821;1272;22358;-89
2023/09/10 16:30:47;;;;;;;9.90;6.80;;;;;;;24.81;69.22;99189.03;270046;1272;22555;-89
2023/09/10 16:36:49;;;;;;;9.60;7.20;;;;;;;24.62;70.93;99191.09;271191;1272;22648;-89
2023/09/10 16:42:50;;;;;;;8.90;7.40;;;;;;;24.46;71.74;99188.25;270147;1272;22568;-88
2023/09/10 16:48:52;;;;;;;8.30;7.40;;;;;;;24.31;72.90;99189.36;270500;1270;22568;-89
2023/09/10 16:54:54;;;;;;;8.20;7.40;;;;;;;24.17;74.02;99188.27;270782;1272;22165;-88
2023/09/10 17:00:56;;;;;;;9.40;8.00;;;;;;;23.99;75.03;99188.38;264136;1275;10001512;-89
2023/09/10 17:06:57;;;;;;;11.50;8.20;;;;;;;23.64;76.39;99191.86;272481;1271;22242;-88
2023/09/10 17:13:00;;;;;;;13.80;8.60;;;;;;;23.24;77.67;99192.16;272811;1272;22309;-89
2023/09/10 17:19:05;;;;;;;12.60;7.60;;;;;;;22.91;79.17;99193.06;272711;1272;22144;-89
2023/09/10 17:25:07;;;;;;;11.60;9.60;;;;;;;22.67;80.55;99193.99;272792;1273;22336;-89
2023/09/10 17:31:09;;;;;;;11.50;9.20;;;;;;;22.44;81.62;99200.33;272823;1272;22168;-87
2023/09/10 17:37:11;;;;;;;13.20;9.20;;;;;;;22.21;82.47;99210.88;272815;1272;23071;-89
2023/09/10 17:43:14;;;;;;;10.60;8.50;;;;;;;22.00;83.27;99208.39;272763;1273;23191;-88
2023/09/10 17:49:18;;;;;;;11.10;9.10;;;;;;;21.83;83.80;99211.14;273006;1277;22206;-89
2023/09/10 17:55:20;;;;;;;11.60;9.00;;;;;;;21.63;84.78;99216.59;272715;1264;23658;-88
2023/09/10 18:01:25;;;;;;;11.50;9.30;;;;;;;21.35;85.50;99221.05;272888;1272;22215;-89
2023/09/10 18:07:31;;;;;;;10.80;8.00;;;;;;;21.10;86.55;99221.23;272712;1270;22342;-88
2023/09/10 18:13:33;;;;;;;10.50;8.80;;;;;;;20.96;87.76;99222.85;272733;1270;22418;-88
2023/09/10 18:19:35;;;;;;;13.70;9.40;;;;;;;20.89;88.39;99221.13;272260;1270;22219;-87
2023/09/10 18:25:37;;;;;;;12.40;9.70;;;;;;;20.80;89.05;99225.44;272601;1270;22326;-89
2023/09/10 18:31:40;;;;;;;13.40;10.00;;;;;;;20.65;89.43;99226.86;272918;1270;22435;-88
2023/09/10 18:37:42;;;;;;;13.60;9.70;;;;;;;20.50;89.92;99227.95;272934;1270;22337;-88
2023/09/10 18:43:47;;;;;;;12.40;9.90;;;;;;;20.30;90.23;99229.23;272818;1270;22319;-88
2023/09/10 18:49:49;;;;;;;15.70;10.60;;;;;;;20.15;91.36;99230.07;272948;1270;22180;-88
2023/09/10 18:55:50;;;;;;;13.10;10.40;;;;;;;20.01;91.81;99228.38;272716;1270;25126;-88
2023/09/10 19:01:57;;;;;;;13.80;10.90;;;;;;;19.86;92.28;99224.38;272817;1270;22302;-88
2023/09/10 19:08:07;;;;;;;16.40;11.60;;;;;;;19.68;92.93;99224.38;272885;1270;22314;-87
2023/09/10 19:14:08;;;;;;;15.20;11.50;;;;;;;19.53;93.68;99223.29;272827;1270;22339;-89
2023/09/10 19:20:24;;;;;;;19.80;12.60;;;;;;;19.40;94.58;99222.84;272999;1270;23469;-89
2023/09/10 19:26:30;;;;;;;16.90;13.00;;;;;;;19.27;95.10;99223.40;272810;1270;23190;-88
2023/09/10 19:32:49;;;;;;;18.90;12.30;;;;;;;19.12;95.88;99218.31;272976;1271;22640;-88
2023/09/10 19:39:07;;;;;;;17.30;11.40;;;;;;;19.05;96.48;99220.99;272757;1270;22364;-88
2023/09/10 19:45:13;;;;;;;18.30;12.10;;;;;;;18.92;96.92;99221.23;272868;1270;23448;-88
2023/09/10 19:51:14;;;;;;;16.90;12.60;;;;;;;18.80;97.45;99220.52;272894;1270;23635;-88
2023/09/10 19:57:24;;;;;;;15.90;12.20;;;;;;;18.70;98.05;99219.02;273045;1270;22199;-88
2023/09/10 20:03:26;;;;;;;15.80;11.90;;;;;;;18.61;98.57;99221.80;272919;1261;23142;-89
2023/09/10 20:09:29;;;;;;;15.40;11.70;;;;;;;18.54;99.08;99220.49;272902;1270;22217;-88
2023/09/10 20:15:31;;;;;;;15.40;12.50;;;;;;;18.41;99.42;99223.15;272807;1270;22321;-88
2023/09/10 20:21:33;;;;;;;19.20;12.40;;;;;;;18.27;99.94;99222.50;272767;1270;22362;-88
2023/09/10 20:27:35;;;;;;;16.20;12.70;;;;;;;18.13;99.97;99220.11;272795;1270;22347;-88
2023/09/10 20:33:37;;;;;;;16.00;12.80;;;;;;;18.01;100.00;99221.58;272789;1261;22422;-88
2023/09/10 20:39:56;;;;;;;15.90;12.80;;;;;;;17.96;100.00;99225.61;272821;1271;22230;-88
2023/09/10 20:46:11;;;;;;;16.80;13.30;;;;;;;17.86;100.00;99226.39;272746;1270;22339;-88
2023/09/10 20:52:13;;;;;;;16.40;13.40;;;;;;;17.75;100.00;99221.95;272853;1270;22268;-88
2023/09/10 20:58:15;;;;;;;18.00;14.30;;;;;;;17.66;100.00;99222.23;273026;1270;23230;-88
2023/09/10 21:04:18;;;;;;;16.50;14.50;;;;;;;17.55;100.00;99223.57;273057;1270;22393;-88
2023/09/10 21:10:19;;;;;;;18.90;14.40;;;;;;;17.49;100.00;99218.90;272949;1270;22409;-88
2023/09/10 21:16:21;;;;;;;17.10;12.40;;;;;;;17.41;100.00;99219.63;272974;1270;22329;-87
2023/09/10 21:22:25;;;;;;;18.70;13.90;;;;;;;17.26;100.00;99219.73;272967;1270;22392;-87
2023/09/10 21:28:28;;;;;;;19.00;14.10;;;;;;;17.17;100.00;99221.16;272849;1270;22405;-88
2023/09/10 21:34:29;;;;;;;18.50;15.20;;;;;;;17.13;100.00;99221.21;273114;1270;22334;-87
2023/09/10 21:40:31;;;;;;;19.70;14.30;;;;;;;17.04;100.00;99223.63;273223;1270;22386;-88
2023/09/10 21:46:47;;;;;;;21.50;14.50;;;;;;;16.93;100.00;99223.73;273059;1270;22357;-86
2023/09/10 21:52:49;;;;;;;16.80;13.50;;;;;;;16.84;100.00;99221.55;272845;1270;22304;-87
2023/09/10 21:58:55;;;;;;;20.40;14.20;;;;;;;16.77;100.00;99217.03;272872;1270;23071;-88
2023/09/10 22:04:57;;;;;;;20.60;15.50;;;;;;;16.72;100.00;99214.40;273041;1270;22333;-88
2023/09/10 22:11:01;;;;;;;20.20;15.50;;;;;;;16.66;100.00;99212.80;272935;1270;22187;-88
2023/09/10 22:17:17;;;;;;;17.30;14.00;;;;;;;16.57;100.00;99212.34;273203;1269;22326;-87
2023/09/10 22:23:20;;;;;;;20.40;13.10;;;;;;;16.50;100.00;99212.71;273161;1270;22256;-87
2023/09/10 22:29:21;;;;;;;17.40;12.80;;;;;;;16.38;100.00;99210.98;272918;1270;22204;-87
2023/09/10 22:35:27;;;;;;;18.40;14.60;;;;;;;16.28;100.00;99212.34;273149;1274;23314;-88
2023/09/10 22:41:29;;;;;;;16.70;13.00;;;;;;;16.23;100.00;99210.33;273039;1270;22333;-87
2023/09/10 22:47:51;;;;;;;18.90;13.40;;;;;;;16.20;100.00;99211.30;273041;1270;22205;-87
2023/09/10 22:54:06;;;;;;;20.10;15.30;;;;;;;16.16;100.00;99212.02;273416;1272;23261;-87
2023/09/10 23:00:10;;;;;;;16.00;11.90;;;;;;;16.14;100.00;99207.40;273319;1272;22178;-87
2023/09/10 23:06:11;;;;;;;19.30;14.30;;;;;;;16.04;100.00;99209.76;273147;1270;22264;-87
2023/09/10 23:12:13;;;;;;;16.90;13.20;;;;;;;15.94;100.00;99209.98;273417;1270;23515;-87
2023/09/10 23:18:23;;;;;;;22.70;14.40;;;;;;;15.84;100.00;99207.08;272320;1270;1138001;-87
2023/09/10 23:24:39;;;;;;;16.30;13.40;;;;;;;15.78;100.00;99200.15;273187;1270;22326;-87
2023/09/10 23:30:48;;;;;;;16.30;14.60;;;;;;;15.79;100.00;99193.77;273175;1270;22413;-87
2023/09/10 23:37:09;;;;;;;19.90;12.50;;;;;;;15.72;100.00;99190.98;273399;1270;22221;-87
2023/09/10 23:43:11;;;;;;;16.20;11.60;;;;;;;15.62;100.00;99187.80;273151;1270;22289;-87
2023/09/10 23:49:29;;;;;;;16.00;13.10;;;;;;;15.56;100.00;99188.08;273201;1275;22972;-87
2023/09/10 23:55:46;;;;;;;14.10;11.40;;;;;;;15.55;100.00;99183.67;273107;1270;22265;-87
